sensor_id;sensor_type;location;lat;lon;timestamp;temperature;humidity
2130;DHT22;1071;52.544;13.374;2023-03-19T00:00:24;13.40;99.90
2130;DHT22;1071;52.544;13.374;2023-03-19T00:02:51;13.40;99.90
2130;DHT22;1071;52.544;13.374;2023-03-19T00:05:19;13.30;99.90
2130;DHT22;1071;52.544;13.374;2023-03-19T00:07:46;13.30;99.90
2130;DHT22;1071;52.544;13.374;2023-03-19T00:10:13;13.30;99.90
2130;DHT22;1071;52.544;13.374;2023-03-19T00:12:41;13.30;99.90
2130;DHT22;1071;52.544;13.374;2023-03-19T00:15:09;13.30;99.90
2130;DHT22;1071;52.544;13.374;2023-03-19T00:17:39;13.30;99.90
2130;DHT22;1071;52.544;13.374;2023-03-19T00:20:09;13.30;99.90
2130;DHT22;1071;52.544;13.374;2023-03-19T00:22:37;13.30;99.90
2130;DHT22;1071;52.544;13.374;2023-03-19T00:25:08;13.30;99.90
2130;DHT22;1071;52.544;13.374;2023-03-19T00:27:40;13.20;99.90
2130;DHT22;1071;52.544;13.374;2023-03-19T00:30:10;13.20;99.90
2130;DHT22;1071;52.544;13.374;2023-03-19T00:32:37;13.20;99.90
2130;DHT22;1071;52.544;13.374;2023-03-19T00:35:06;13.20;99.90
2130;DHT22;1071;52.544;13.374;2023-03-19T00:37:33;13.20;99.90
2130;DHT22;1071;52.544;13.374;2023-03-19T00:40:01;13.20;99.90
2130;DHT22;1071;52.544;13.374;2023-03-19T00:42:29;13.10;99.90
2130;DHT22;1071;52.544;13.374;2023-03-19T00:44:57;13.10;99.90
2130;DHT22;1071;52.544;13.374;2023-03-19T00:47:24;13.10;99.90
2130;DHT22;1071;52.544;13.374;2023-03-19T00:49:51;13.10;99.90
2130;DHT22;1071;52.544;13.374;2023-03-19T00:52:18;13.10;99.90
2130;DHT22;1071;52.544;13.374;2023-03-19T00:54:45;13.10;99.90
2130;DHT22;1071;52.544;13.374;2023-03-19T00:57:12;13.00;99.90
2130;DHT22;1071;52.544;13.374;2023-03-19T00:59:39;13.00;99.90
2130;DHT22;1071;52.544;13.374;2023-03-19T01:02:07;13.00;99.90
2130;DHT22;1071;52.544;13.374;2023-03-19T01:04:35;13.00;99.90
2130;DHT22;1071;52.544;13.374;2023-03-19T01:07:02;13.00;99.90
2130;DHT22;1071;52.544;13.374;2023-03-19T01:09:30;12.90;99.90
2130;DHT22;1071;52.544;13.374;2023-03-19T01:11:57;12.90;99.90
2130;DHT22;1071;52.544;13.374;2023-03-19T01:14:28;12.80;99.90
2130;DHT22;1071;52.544;13.374;2023-03-19T01:16:55;12.80;99.90
2130;DHT22;1071;52.544;13.374;2023-03-19T01:19:23;12.80;99.90
2130;DHT22;1071;52.544;13.374;2023-03-19T01:21:50;12.80;99.90
2130;DHT22;1071;52.544;13.374;2023-03-19T01:24:17;12.70;99.90
2130;DHT22;1071;52.544;13.374;2023-03-19T01:26:45;12.70;99.90
2130;DHT22;1071;52.544;13.374;2023-03-19T01:29:15;12.70;99.90
2130;DHT22;1071;52.544;13.374;2023-03-19T01:31:42;12.70;99.90
2130;DHT22;1071;52.544;13.374;2023-03-19T01:34:12;12.70;99.90
2130;DHT22;1071;52.544;13.374;2023-03-19T01:36:43;12.70;99.90
2130;DHT22;1071;52.544;13.374;2023-03-19T01:39:10;12.70;99.90
2130;DHT22;1071;52.544;13.374;2023-03-19T01:41:37;12.70;99.90
2130;DHT22;1071;52.544;13.374;2023-03-19T01:44:22;12.70;99.90
2130;DHT22;1071;52.544;13.374;2023-03-19T01:46:50;12.60;99.90
2130;DHT22;1071;52.544;13.374;2023-03-19T01:49:18;12.60;99.90
2130;DHT22;1071;52.544;13.374;2023-03-19T01:51:48;12.60;99.90
2130;DHT22;1071;52.544;13.374;2023-03-19T01:54:20;12.60;99.90
2130;DHT22;1071;52.544;13.374;2023-03-19T01:56:51;12.60;99.90
2130;DHT22;1071;52.544;13.374;2023-03-19T01:59:24;12.60;99.90
2130;DHT22;1071;52.544;13.374;2023-03-19T02:01:55;12.60;99.90
2130;DHT22;1071;52.544;13.374;2023-03-19T02:04:30;12.50;99.90
2130;DHT22;1071;52.544;13.374;2023-03-19T02:07:03;12.50;99.90
2130;DHT22;1071;52.544;13.374;2023-03-19T02:09:31;12.50;99.90
2130;DHT22;1071;52.544;13.374;2023-03-19T02:11:59;12.50;99.90
2130;DHT22;1071;52.544;13.374;2023-03-19T02:14:31;12.50;99.90
2130;DHT22;1071;52.544;13.374;2023-03-19T02:17:03;12.50;99.90
2130;DHT22;1071;52.544;13.374;2023-03-19T02:19:37;12.50;99.90
2130;DHT22;1071;52.544;13.374;2023-03-19T02:22:09;12.40;99.90
2130;DHT22;1071;52.544;13.374;2023-03-19T02:24:40;12.40;99.90
2130;DHT22;1071;52.544;13.374;2023-03-19T02:27:12;12.40;99.90
2130;DHT22;1071;52.544;13.374;2023-03-19T02:29:39;12.40;99.90
2130;DHT22;1071;52.544;13.374;2023-03-19T02:32:06;12.40;99.90
2130;DHT22;1071;52.544;13.374;2023-03-19T02:34:40;12.40;99.90
2130;DHT22;1071;52.544;13.374;2023-03-19T02:37:15;12.40;99.90
2130;DHT22;1071;52.544;13.374;2023-03-19T02:39:49;12.30;99.90
2130;DHT22;1071;52.544;13.374;2023-03-19T02:42:20;12.30;99.90
2130;DHT22;1071;52.544;13.374;2023-03-19T02:44:48;12.30;99.90
2130;DHT22;1071;52.544;13.374;2023-03-19T02:47:15;12.30;99.90
2130;DHT22;1071;52.544;13.374;2023-03-19T02:49:42;12.40;99.90
2130;DHT22;1071;52.544;13.374;2023-03-19T02:52:09;12.40;99.90
2130;DHT22;1071;52.544;13.374;2023-03-19T02:54:37;12.40;99.90
2130;DHT22;1071;52.544;13.374;2023-03-19T02:57:04;12.40;99.90
2130;DHT22;1071;52.544;13.374;2023-03-19T02:59:33;12.50;99.90
2130;DHT22;1071;52.544;13.374;2023-03-19T03:02:00;12.50;99.90
2130;DHT22;1071;52.544;13.374;2023-03-19T03:04:27;12.60;99.90
2130;DHT22;1071;52.544;13.374;2023-03-19T03:06:55;12.60;99.90
2130;DHT22;1071;52.544;13.374;2023-03-19T03:09:22;12.70;99.90
2130;DHT22;1071;52.544;13.374;2023-03-19T03:11:49;12.70;99.70
2130;DHT22;1071;52.544;13.374;2023-03-19T03:14:16;12.70;99.70
2130;DHT22;1071;52.544;13.374;2023-03-19T03:16:45;12.70;99.70
2130;DHT22;1071;52.544;13.374;2023-03-19T03:19:12;12.70;99.60
2130;DHT22;1071;52.544;13.374;2023-03-19T03:21:39;12.70;99.20
2130;DHT22;1071;52.544;13.374;2023-03-19T03:24:07;12.70;99.30
2130;DHT22;1071;52.544;13.374;2023-03-19T03:26:35;12.70;99.20
2130;DHT22;1071;52.544;13.374;2023-03-19T03:29:04;12.70;99.30
2130;DHT22;1071;52.544;13.374;2023-03-19T03:31:31;12.70;99.30
2130;DHT22;1071;52.544;13.374;2023-03-19T03:34:00;12.70;99.30
2130;DHT22;1071;52.544;13.374;2023-03-19T03:36:28;12.70;99.30
2130;DHT22;1071;52.544;13.374;2023-03-19T03:38:58;12.70;99.60
2130;DHT22;1071;52.544;13.374;2023-03-19T03:41:25;12.70;99.30
2130;DHT22;1071;52.544;13.374;2023-03-19T03:43:52;12.70;99.30
2130;DHT22;1071;52.544;13.374;2023-03-19T03:46:22;12.70;99.30
2130;DHT22;1071;52.544;13.374;2023-03-19T03:48:49;12.70;99.40
2130;DHT22;1071;52.544;13.374;2023-03-19T03:51:18;12.70;99.60
2130;DHT22;1071;52.544;13.374;2023-03-19T03:53:46;12.70;99.80
2130;DHT22;1071;52.544;13.374;2023-03-19T03:56:13;12.70;99.70
2130;DHT22;1071;52.544;13.374;2023-03-19T03:58:40;12.60;99.80
2130;DHT22;1071;52.544;13.374;2023-03-19T04:01:09;12.60;99.90
2130;DHT22;1071;52.544;13.374;2023-03-19T04:03:46;12.60;99.90
2130;DHT22;1071;52.544;13.374;2023-03-19T04:06:14;12.60;99.80
2130;DHT22;1071;52.544;13.374;2023-03-19T04:08:44;12.60;99.80
2130;DHT22;1071;52.544;13.374;2023-03-19T04:11:11;12.60;99.90
2130;DHT22;1071;52.544;13.374;2023-03-19T04:13:38;12.60;99.80
2130;DHT22;1071;52.544;13.374;2023-03-19T04:16:07;12.50;99.70
2130;DHT22;1071;52.544;13.374;2023-03-19T04:18:35;12.50;99.80
2130;DHT22;1071;52.544;13.374;2023-03-19T04:21:02;12.50;99.90
2130;DHT22;1071;52.544;13.374;2023-03-19T04:23:29;12.50;99.90
2130;DHT22;1071;52.544;13.374;2023-03-19T04:25:59;12.50;99.90
2130;DHT22;1071;52.544;13.374;2023-03-19T04:28:26;12.50;99.90
2130;DHT22;1071;52.544;13.374;2023-03-19T04:30:58;12.50;99.90
2130;DHT22;1071;52.544;13.374;2023-03-19T04:33:25;12.50;99.90
2130;DHT22;1071;52.544;13.374;2023-03-19T04:35:52;12.50;99.90
2130;DHT22;1071;52.544;13.374;2023-03-19T04:38:25;12.50;99.90
2130;DHT22;1071;52.544;13.374;2023-03-19T04:40:53;12.40;99.90
2130;DHT22;1071;52.544;13.374;2023-03-19T04:43:22;12.40;99.90
2130;DHT22;1071;52.544;13.374;2023-03-19T04:45:49;12.40;99.90
2130;DHT22;1071;52.544;13.374;2023-03-19T04:48:16;12.40;99.90
2130;DHT22;1071;52.544;13.374;2023-03-19T04:50:44;12.50;99.90
2130;DHT22;1071;52.544;13.374;2023-03-19T04:53:16;12.50;99.90
2130;DHT22;1071;52.544;13.374;2023-03-19T04:55:47;12.50;99.90
2130;DHT22;1071;52.544;13.374;2023-03-19T04:58:14;12.50;99.90
2130;DHT22;1071;52.544;13.374;2023-03-19T05:00:46;12.50;99.90
2130;DHT22;1071;52.544;13.374;2023-03-19T05:03:13;12.50;99.90
2130;DHT22;1071;52.544;13.374;2023-03-19T05:05:40;12.50;99.90
2130;DHT22;1071;52.544;13.374;2023-03-19T05:08:16;12.50;99.90
2130;DHT22;1071;52.544;13.374;2023-03-19T05:10:43;12.50;99.90
2130;DHT22;1071;52.544;13.374;2023-03-19T05:13:10;12.50;99.90
2130;DHT22;1071;52.544;13.374;2023-03-19T05:15:40;12.50;99.90
2130;DHT22;1071;52.544;13.374;2023-03-19T05:18:09;12.50;99.90
2130;DHT22;1071;52.544;13.374;2023-03-19T05:20:36;12.50;99.90
2130;DHT22;1071;52.544;13.374;2023-03-19T05:23:04;12.50;99.90
2130;DHT22;1071;52.544;13.374;2023-03-19T05:25:33;12.50;99.90
2130;DHT22;1071;52.544;13.374;2023-03-19T05:28:01;12.40;99.90
2130;DHT22;1071;52.544;13.374;2023-03-19T05:30:28;12.40;99.90
2130;DHT22;1071;52.544;13.374;2023-03-19T05:32:56;12.40;99.90
2130;DHT22;1071;52.544;13.374;2023-03-19T05:35:27;12.40;99.90
2130;DHT22;1071;52.544;13.374;2023-03-19T05:37:54;12.30;99.90
2130;DHT22;1071;52.544;13.374;2023-03-19T05:40:22;12.30;99.90
2130;DHT22;1071;52.544;13.374;2023-03-19T05:42:49;12.20;99.90
2130;DHT22;1071;52.544;13.374;2023-03-19T05:45:16;12.20;99.90
2130;DHT22;1071;52.544;13.374;2023-03-19T05:47:46;12.20;99.90
2130;DHT22;1071;52.544;13.374;2023-03-19T05:50:13;12.10;99.90
2130;DHT22;1071;52.544;13.374;2023-03-19T05:52:42;12.10;99.90
2130;DHT22;1071;52.544;13.374;2023-03-19T05:55:09;12.10;99.90
2130;DHT22;1071;52.544;13.374;2023-03-19T05:57:37;12.10;99.90
2130;DHT22;1071;52.544;13.374;2023-03-19T06:00:06;12.10;99.90
2130;DHT22;1071;52.544;13.374;2023-03-19T06:02:34;12.00;99.90
2130;DHT22;1071;52.544;13.374;2023-03-19T06:05:01;12.10;99.90
2130;DHT22;1071;52.544;13.374;2023-03-19T06:07:29;12.10;99.90
2130;DHT22;1071;52.544;13.374;2023-03-19T06:09:58;12.10;99.90
2130;DHT22;1071;52.544;13.374;2023-03-19T06:12:25;12.10;99.90
2130;DHT22;1071;52.544;13.374;2023-03-19T06:14:53;12.20;99.90
2130;DHT22;1071;52.544;13.374;2023-03-19T06:17:21;12.20;99.90
2130;DHT22;1071;52.544;13.374;2023-03-19T06:19:48;12.20;99.90
2130;DHT22;1071;52.544;13.374;2023-03-19T06:22:15;12.20;99.90
2130;DHT22;1071;52.544;13.374;2023-03-19T06:24:42;12.20;99.90
2130;DHT22;1071;52.544;13.374;2023-03-19T06:27:13;12.30;99.90
2130;DHT22;1071;52.544;13.374;2023-03-19T06:29:40;12.30;99.90
2130;DHT22;1071;52.544;13.374;2023-03-19T06:32:07;12.40;99.90
2130;DHT22;1071;52.544;13.374;2023-03-19T06:34:35;12.40;99.90
2130;DHT22;1071;52.544;13.374;2023-03-19T06:37:02;12.40;99.90
2130;DHT22;1071;52.544;13.374;2023-03-19T06:39:31;12.50;99.90
2130;DHT22;1071;52.544;13.374;2023-03-19T06:41:59;12.50;99.90
2130;DHT22;1071;52.544;13.374;2023-03-19T06:44:30;12.50;99.90
2130;DHT22;1071;52.544;13.374;2023-03-19T06:46:57;12.60;99.90
2130;DHT22;1071;52.544;13.374;2023-03-19T06:49:24;12.60;99.90
2130;DHT22;1071;52.544;13.374;2023-03-19T06:51:51;12.70;99.90
2130;DHT22;1071;52.544;13.374;2023-03-19T06:54:19;12.70;99.90
2130;DHT22;1071;52.544;13.374;2023-03-19T06:56:46;12.80;99.90
2130;DHT22;1071;52.544;13.374;2023-03-19T06:59:13;12.80;99.90
2130;DHT22;1071;52.544;13.374;2023-03-19T07:01:42;12.90;99.90
2130;DHT22;1071;52.544;13.374;2023-03-19T07:04:09;12.90;99.90
2130;DHT22;1071;52.544;13.374;2023-03-19T07:06:36;12.90;99.90
2130;DHT22;1071;52.544;13.374;2023-03-19T07:09:03;12.90;99.90
2130;DHT22;1071;52.544;13.374;2023-03-19T07:11:31;12.90;99.90
2130;DHT22;1071;52.544;13.374;2023-03-19T07:13:58;12.90;99.90
2130;DHT22;1071;52.544;13.374;2023-03-19T07:16:25;12.90;99.90
2130;DHT22;1071;52.544;13.374;2023-03-19T07:18:54;12.90;99.90
2130;DHT22;1071;52.544;13.374;2023-03-19T07:21:22;12.80;99.90
2130;DHT22;1071;52.544;13.374;2023-03-19T07:23:49;12.80;99.90
2130;DHT22;1071;52.544;13.374;2023-03-19T07:26:16;12.80;99.90
2130;DHT22;1071;52.544;13.374;2023-03-19T07:28:43;12.80;99.90
2130;DHT22;1071;52.544;13.374;2023-03-19T07:31:11;12.80;99.90
2130;DHT22;1071;52.544;13.374;2023-03-19T07:33:38;12.80;99.90
2130;DHT22;1071;52.544;13.374;2023-03-19T07:36:08;12.70;99.90
2130;DHT22;1071;52.544;13.374;2023-03-19T07:38:35;12.70;99.90
2130;DHT22;1071;52.544;13.374;2023-03-19T07:41:03;12.70;99.90
2130;DHT22;1071;52.544;13.374;2023-03-19T07:43:30;12.70;99.90
2130;DHT22;1071;52.544;13.374;2023-03-19T07:45:57;12.60;99.90
2130;DHT22;1071;52.544;13.374;2023-03-19T07:48:25;12.60;99.90
2130;DHT22;1071;52.544;13.374;2023-03-19T07:50:52;12.50;99.90
2130;DHT22;1071;52.544;13.374;2023-03-19T07:53:21;12.50;99.90
2130;DHT22;1071;52.544;13.374;2023-03-19T07:55:48;12.50;99.90
2130;DHT22;1071;52.544;13.374;2023-03-19T07:58:15;12.60;99.90
2130;DHT22;1071;52.544;13.374;2023-03-19T08:00:43;12.50;99.90
2130;DHT22;1071;52.544;13.374;2023-03-19T08:03:11;12.50;99.90
2130;DHT22;1071;52.544;13.374;2023-03-19T08:05:38;12.50;99.90
2130;DHT22;1071;52.544;13.374;2023-03-19T08:08:05;12.50;99.90
2130;DHT22;1071;52.544;13.374;2023-03-19T08:10:34;12.50;99.90
2130;DHT22;1071;52.544;13.374;2023-03-19T08:13:01;12.50;99.90
2130;DHT22;1071;52.544;13.374;2023-03-19T08:15:29;12.50;99.90
2130;DHT22;1071;52.544;13.374;2023-03-19T08:17:57;12.50;99.90
2130;DHT22;1071;52.544;13.374;2023-03-19T08:20:24;12.50;99.90
2130;DHT22;1071;52.544;13.374;2023-03-19T08:23:00;12.50;99.90
2130;DHT22;1071;52.544;13.374;2023-03-19T08:25:28;12.50;99.90
2130;DHT22;1071;52.544;13.374;2023-03-19T08:27:58;12.50;99.90
2130;DHT22;1071;52.544;13.374;2023-03-19T08:30:25;12.50;99.90
2130;DHT22;1071;52.544;13.374;2023-03-19T08:32:53;12.50;99.90
2130;DHT22;1071;52.544;13.374;2023-03-19T08:35:20;12.50;99.90
2130;DHT22;1071;52.544;13.374;2023-03-19T08:37:47;12.50;99.90
2130;DHT22;1071;52.544;13.374;2023-03-19T08:40:14;12.50;99.90
2130;DHT22;1071;52.544;13.374;2023-03-19T08:42:45;12.50;99.90
2130;DHT22;1071;52.544;13.374;2023-03-19T08:45:15;12.50;99.90
2130;DHT22;1071;52.544;13.374;2023-03-19T08:47:43;12.50;99.90
2130;DHT22;1071;52.544;13.374;2023-03-19T08:50:10;12.40;99.90
2130;DHT22;1071;52.544;13.374;2023-03-19T08:52:38;12.40;99.90
2130;DHT22;1071;52.544;13.374;2023-03-19T08:55:05;12.40;99.90
2130;DHT22;1071;52.544;13.374;2023-03-19T08:57:34;12.40;99.90
2130;DHT22;1071;52.544;13.374;2023-03-19T09:00:02;12.40;99.90
2130;DHT22;1071;52.544;13.374;2023-03-19T09:02:31;12.40;99.90
2130;DHT22;1071;52.544;13.374;2023-03-19T09:04:59;12.40;99.90
2130;DHT22;1071;52.544;13.374;2023-03-19T09:07:26;12.30;99.90
2130;DHT22;1071;52.544;13.374;2023-03-19T09:09:54;12.20;99.90
2130;DHT22;1071;52.544;13.374;2023-03-19T09:12:25;12.20;99.90
2130;DHT22;1071;52.544;13.374;2023-03-19T09:14:52;12.10;99.90
2130;DHT22;1071;52.544;13.374;2023-03-19T09:17:19;12.10;99.90
2130;DHT22;1071;52.544;13.374;2023-03-19T09:19:48;12.10;99.90
2130;DHT22;1071;52.544;13.374;2023-03-19T09:22:15;12.10;99.90
2130;DHT22;1071;52.544;13.374;2023-03-19T09:24:42;12.20;99.90
2130;DHT22;1071;52.544;13.374;2023-03-19T09:27:10;12.20;99.90
2130;DHT22;1071;52.544;13.374;2023-03-19T09:29:38;12.20;99.90
2130;DHT22;1071;52.544;13.374;2023-03-19T09:32:05;12.30;99.90
2130;DHT22;1071;52.544;13.374;2023-03-19T09:34:33;12.30;99.90
2130;DHT22;1071;52.544;13.374;2023-03-19T09:37:01;12.40;99.90
2130;DHT22;1071;52.544;13.374;2023-03-19T09:39:28;12.40;99.90
2130;DHT22;1071;52.544;13.374;2023-03-19T09:42:02;12.40;99.90
2130;DHT22;1071;52.544;13.374;2023-03-19T09:44:34;12.40;99.90
2130;DHT22;1071;52.544;13.374;2023-03-19T09:47:11;12.40;99.90
2130;DHT22;1071;52.544;13.374;2023-03-19T09:49:46;12.50;99.90
2130;DHT22;1071;52.544;13.374;2023-03-19T09:52:24;12.50;99.90
2130;DHT22;1071;52.544;13.374;2023-03-19T09:55:02;12.60;99.90
2130;DHT22;1071;52.544;13.374;2023-03-19T09:57:31;12.70;99.90
2130;DHT22;1071;52.544;13.374;2023-03-19T09:59:59;12.70;99.90
2130;DHT22;1071;52.544;13.374;2023-03-19T10:02:39;12.80;99.90
2130;DHT22;1071;52.544;13.374;2023-03-19T10:05:22;12.90;99.90
2130;DHT22;1071;52.544;13.374;2023-03-19T10:10:48;12.90;99.90
2130;DHT22;1071;52.544;13.374;2023-03-19T10:13:25;13.00;99.90
2130;DHT22;1071;52.544;13.374;2023-03-19T10:15:58;13.00;99.90
2130;DHT22;1071;52.544;13.374;2023-03-19T10:18:28;13.10;99.90
2130;DHT22;1071;52.544;13.374;2023-03-19T10:20:58;13.20;99.90
2130;DHT22;1071;52.544;13.374;2023-03-19T10:23:36;13.20;99.90
2130;DHT22;1071;52.544;13.374;2023-03-19T10:26:10;13.40;99.90
2130;DHT22;1071;52.544;13.374;2023-03-19T10:28:41;13.40;99.90
2130;DHT22;1071;52.544;13.374;2023-03-19T10:34:09;13.50;99.90
2130;DHT22;1071;52.544;13.374;2023-03-19T10:36:40;13.60;99.90
2130;DHT22;1071;52.544;13.374;2023-03-19T10:39:09;13.60;99.90
2130;DHT22;1071;52.544;13.374;2023-03-19T10:41:52;13.70;99.90
2130;DHT22;1071;52.544;13.374;2023-03-19T10:44:30;13.80;99.90
2130;DHT22;1071;52.544;13.374;2023-03-19T10:47:09;13.80;99.90
2130;DHT22;1071;52.544;13.374;2023-03-19T10:49:37;13.90;99.90
2130;DHT22;1071;52.544;13.374;2023-03-19T10:52:04;13.90;99.90
2130;DHT22;1071;52.544;13.374;2023-03-19T10:54:32;14.00;99.90
2130;DHT22;1071;52.544;13.374;2023-03-19T10:57:01;14.10;99.90
2130;DHT22;1071;52.544;13.374;2023-03-19T10:59:32;14.20;99.90
2130;DHT22;1071;52.544;13.374;2023-03-19T11:02:18;14.20;99.90
2130;DHT22;1071;52.544;13.374;2023-03-19T11:04:47;14.30;99.90
2130;DHT22;1071;52.544;13.374;2023-03-19T11:07:18;14.30;99.90
2130;DHT22;1071;52.544;13.374;2023-03-19T11:09:47;14.40;99.90
2130;DHT22;1071;52.544;13.374;2023-03-19T11:12:19;14.40;99.90
2130;DHT22;1071;52.544;13.374;2023-03-19T11:14:49;14.40;99.90
2130;DHT22;1071;52.544;13.374;2023-03-19T11:17:20;14.50;99.90
2130;DHT22;1071;52.544;13.374;2023-03-19T11:19:51;14.50;99.90
2130;DHT22;1071;52.544;13.374;2023-03-19T11:22:21;14.60;99.90
2130;DHT22;1071;52.544;13.374;2023-03-19T11:24:51;14.60;99.90
2130;DHT22;1071;52.544;13.374;2023-03-19T11:27:25;14.60;99.90
2130;DHT22;1071;52.544;13.374;2023-03-19T11:29:54;14.50;99.90
2130;DHT22;1071;52.544;13.374;2023-03-19T11:32:54;14.50;99.90
2130;DHT22;1071;52.544;13.374;2023-03-19T11:35:25;14.50;99.90
2130;DHT22;1071;52.544;13.374;2023-03-19T11:37:57;14.50;99.90
2130;DHT22;1071;52.544;13.374;2023-03-19T11:40:37;14.60;99.90
2130;DHT22;1071;52.544;13.374;2023-03-19T11:43:39;14.60;99.90
2130;DHT22;1071;52.544;13.374;2023-03-19T11:46:18;14.60;99.90
2130;DHT22;1071;52.544;13.374;2023-03-19T11:49:14;14.70;99.90
2130;DHT22;1071;52.544;13.374;2023-03-19T11:51:47;14.70;99.90
2130;DHT22;1071;52.544;13.374;2023-03-19T11:54:21;14.80;99.90
2130;DHT22;1071;52.544;13.374;2023-03-19T11:56:55;14.80;99.90
2130;DHT22;1071;52.544;13.374;2023-03-19T11:59:47;14.90;99.90
2130;DHT22;1071;52.544;13.374;2023-03-19T12:05:31;14.90;99.90
2130;DHT22;1071;52.544;13.374;2023-03-19T12:08:07;15.00;99.90
2130;DHT22;1071;52.544;13.374;2023-03-19T12:10:50;15.00;99.90
2130;DHT22;1071;52.544;13.374;2023-03-19T12:13:28;15.00;99.90
2130;DHT22;1071;52.544;13.374;2023-03-19T12:16:08;15.00;99.90
2130;DHT22;1071;52.544;13.374;2023-03-19T12:18:47;15.10;99.90
2130;DHT22;1071;52.544;13.374;2023-03-19T12:21:30;15.10;99.90
2130;DHT22;1071;52.544;13.374;2023-03-19T12:24:03;15.20;99.90
2130;DHT22;1071;52.544;13.374;2023-03-19T12:26:41;15.20;99.90
2130;DHT22;1071;52.544;13.374;2023-03-19T12:29:19;15.20;99.90
2130;DHT22;1071;52.544;13.374;2023-03-19T12:32:17;15.30;99.90
2130;DHT22;1071;52.544;13.374;2023-03-19T12:34:50;15.40;99.90
2130;DHT22;1071;52.544;13.374;2023-03-19T12:37:23;15.40;99.90
2130;DHT22;1071;52.544;13.374;2023-03-19T12:40:04;15.40;99.90
2130;DHT22;1071;52.544;13.374;2023-03-19T12:42:37;15.50;99.90
2130;DHT22;1071;52.544;13.374;2023-03-19T12:45:15;15.50;99.90
2130;DHT22;1071;52.544;13.374;2023-03-19T12:47:45;15.60;99.90
2130;DHT22;1071;52.544;13.374;2023-03-19T12:50:16;15.60;99.90
2130;DHT22;1071;52.544;13.374;2023-03-19T12:52:49;15.60;99.90
2130;DHT22;1071;52.544;13.374;2023-03-19T12:55:19;15.60;99.90
2130;DHT22;1071;52.544;13.374;2023-03-19T12:57:48;15.70;99.90
2130;DHT22;1071;52.544;13.374;2023-03-19T13:00:21;15.70;99.90
2130;DHT22;1071;52.544;13.374;2023-03-19T13:02:59;15.70;99.90
2130;DHT22;1071;52.544;13.374;2023-03-19T13:05:33;15.70;99.90
2130;DHT22;1071;52.544;13.374;2023-03-19T13:08:06;15.70;99.90
2130;DHT22;1071;52.544;13.374;2023-03-19T13:10:36;15.70;99.90
2130;DHT22;1071;52.544;13.374;2023-03-19T13:13:20;15.70;99.90
2130;DHT22;1071;52.544;13.374;2023-03-19T13:15:54;15.70;99.90
2130;DHT22;1071;52.544;13.374;2023-03-19T13:18:34;15.70;99.90
2130;DHT22;1071;52.544;13.374;2023-03-19T13:21:13;15.70;99.90
2130;DHT22;1071;52.544;13.374;2023-03-19T13:23:47;15.70;99.90
2130;DHT22;1071;52.544;13.374;2023-03-19T13:26:16;15.70;99.90
2130;DHT22;1071;52.544;13.374;2023-03-19T13:28:54;15.80;99.90
2130;DHT22;1071;52.544;13.374;2023-03-19T13:31:24;15.80;99.90
2130;DHT22;1071;52.544;13.374;2023-03-19T13:34:04;15.80;99.90
2130;DHT22;1071;52.544;13.374;2023-03-19T13:36:36;15.90;99.90
2130;DHT22;1071;52.544;13.374;2023-03-19T13:39:12;15.90;99.90
2130;DHT22;1071;52.544;13.374;2023-03-19T13:42:34;15.90;99.90
2130;DHT22;1071;52.544;13.374;2023-03-19T13:45:04;15.90;99.90
2130;DHT22;1071;52.544;13.374;2023-03-19T13:47:51;16.00;99.90
2130;DHT22;1071;52.544;13.374;2023-03-19T13:50:24;16.00;99.90
2130;DHT22;1071;52.544;13.374;2023-03-19T13:52:54;16.00;99.90
2130;DHT22;1071;52.544;13.374;2023-03-19T13:55:53;16.00;99.90
2130;DHT22;1071;52.544;13.374;2023-03-19T13:58:24;16.10;99.90
2130;DHT22;1071;52.544;13.374;2023-03-19T14:01:12;16.10;99.90
2130;DHT22;1071;52.544;13.374;2023-03-19T14:03:59;16.10;99.90
2130;DHT22;1071;52.544;13.374;2023-03-19T14:06:34;16.10;99.90
2130;DHT22;1071;52.544;13.374;2023-03-19T14:09:03;16.20;99.90
2130;DHT22;1071;52.544;13.374;2023-03-19T14:11:32;16.20;99.90
2130;DHT22;1071;52.544;13.374;2023-03-19T14:14:05;16.20;99.90
2130;DHT22;1071;52.544;13.374;2023-03-19T14:16:35;16.30;99.90
2130;DHT22;1071;52.544;13.374;2023-03-19T14:19:10;16.30;99.90
2130;DHT22;1071;52.544;13.374;2023-03-19T14:21:42;16.30;99.90
2130;DHT22;1071;52.544;13.374;2023-03-19T14:24:34;16.30;99.90
2130;DHT22;1071;52.544;13.374;2023-03-19T14:27:13;16.40;99.90
2130;DHT22;1071;52.544;13.374;2023-03-19T14:29:43;16.40;99.90
2130;DHT22;1071;52.544;13.374;2023-03-19T14:32:20;16.50;99.90
2130;DHT22;1071;52.544;13.374;2023-03-19T14:34:49;16.50;99.90
2130;DHT22;1071;52.544;13.374;2023-03-19T14:37:21;16.60;99.90
2130;DHT22;1071;52.544;13.374;2023-03-19T14:39:53;16.60;99.90
2130;DHT22;1071;52.544;13.374;2023-03-19T14:42:26;16.70;99.90
2130;DHT22;1071;52.544;13.374;2023-03-19T14:51:46;16.70;99.90
2130;DHT22;1071;52.544;13.374;2023-03-19T14:54:24;16.70;99.90
2130;DHT22;1071;52.544;13.374;2023-03-19T14:56:56;16.70;99.90
2130;DHT22;1071;52.544;13.374;2023-03-19T14:59:25;16.70;99.90
2130;DHT22;1071;52.544;13.374;2023-03-19T15:01:56;16.70;99.90
2130;DHT22;1071;52.544;13.374;2023-03-19T15:04:24;16.70;99.90
2130;DHT22;1071;52.544;13.374;2023-03-19T15:06:53;16.70;99.90
2130;DHT22;1071;52.544;13.374;2023-03-19T15:09:29;16.70;99.90
2130;DHT22;1071;52.544;13.374;2023-03-19T15:12:34;16.70;99.90
2130;DHT22;1071;52.544;13.374;2023-03-19T15:15:20;16.70;99.90
2130;DHT22;1071;52.544;13.374;2023-03-19T15:17:55;16.60;99.90
2130;DHT22;1071;52.544;13.374;2023-03-19T15:20:24;16.60;99.90
2130;DHT22;1071;52.544;13.374;2023-03-19T15:22:56;16.60;99.90
2130;DHT22;1071;52.544;13.374;2023-03-19T15:25:27;16.60;99.90
2130;DHT22;1071;52.544;13.374;2023-03-19T15:28:10;16.50;99.90
2130;DHT22;1071;52.544;13.374;2023-03-19T15:30:41;16.50;99.90
2130;DHT22;1071;52.544;13.374;2023-03-19T15:33:18;16.40;99.90
2130;DHT22;1071;52.544;13.374;2023-03-19T15:35:51;16.40;99.90
2130;DHT22;1071;52.544;13.374;2023-03-19T15:38:20;16.50;99.90
2130;DHT22;1071;52.544;13.374;2023-03-19T15:40:49;16.40;99.90
2130;DHT22;1071;52.544;13.374;2023-03-19T15:43:16;16.40;99.90
2130;DHT22;1071;52.544;13.374;2023-03-19T15:45:47;16.40;99.90
2130;DHT22;1071;52.544;13.374;2023-03-19T15:48:20;16.40;99.90
2130;DHT22;1071;52.544;13.374;2023-03-19T15:50:50;16.40;99.90
2130;DHT22;1071;52.544;13.374;2023-03-19T15:53:24;16.30;99.90
2130;DHT22;1071;52.544;13.374;2023-03-19T15:55:54;16.40;99.90
2130;DHT22;1071;52.544;13.374;2023-03-19T15:58:23;16.40;99.90
2130;DHT22;1071;52.544;13.374;2023-03-19T16:00:51;16.40;99.90
2130;DHT22;1071;52.544;13.374;2023-03-19T16:03:23;16.40;99.90
2130;DHT22;1071;52.544;13.374;2023-03-19T16:05:58;16.40;99.90
2130;DHT22;1071;52.544;13.374;2023-03-19T16:08:26;16.40;99.90
2130;DHT22;1071;52.544;13.374;2023-03-19T16:11:12;16.50;99.90
2130;DHT22;1071;52.544;13.374;2023-03-19T16:13:40;16.50;99.90
2130;DHT22;1071;52.544;13.374;2023-03-19T16:16:16;16.50;99.90
2130;DHT22;1071;52.544;13.374;2023-03-19T16:18:47;16.60;99.90
2130;DHT22;1071;52.544;13.374;2023-03-19T16:21:19;16.60;99.90
2130;DHT22;1071;52.544;13.374;2023-03-19T16:23:51;16.60;99.90